createdAt,value
2023-01-18T00:09:20.490Z,100
2023-01-18T00:23:52.613Z,100
2023-01-18T00:38:24.206Z,100
2023-01-18T00:52:57.284Z,100
2023-01-18T01:07:29.289Z,100
2023-01-18T01:22:00.133Z,100
2023-01-18T01:36:33.508Z,100
2023-01-18T01:51:04.535Z,100
2023-01-18T02:05:36.217Z,100
2023-01-18T02:20:06.921Z,100
2023-01-18T02:34:38.215Z,100
2023-01-18T02:49:10.769Z,100
2023-01-18T03:03:43.579Z,100
2023-01-18T03:18:14.847Z,100
2023-01-18T03:32:45.879Z,100
2023-01-18T03:47:17.718Z,100
2023-01-18T04:01:49.949Z,100
2023-01-18T04:16:22.069Z,100
2023-01-18T04:30:53.704Z,100
2023-01-18T04:45:23.269Z,100
2023-01-18T04:59:55.127Z,100
2023-01-18T05:14:24.698Z,100
2023-01-18T05:28:55.646Z,100
2023-01-18T05:43:24.331Z,100
2023-01-18T05:57:56.643Z,100
2023-01-18T06:12:27.609Z,100
2023-01-18T06:26:58.698Z,100
2023-01-18T06:41:30.795Z,100
2023-01-18T06:56:02.689Z,100
2023-01-18T07:10:33.778Z,100
2023-01-18T07:25:06.452Z,100
2023-01-18T07:39:35.635Z,99.8
2023-01-18T07:54:07.498Z,100
2023-01-18T08:08:36.565Z,100
2023-01-18T08:23:08.500Z,100
2023-01-18T08:37:41.100Z,100
2023-01-18T08:52:11.989Z,100
2023-01-18T09:06:44.377Z,100
2023-01-18T09:21:16.861Z,100
2023-01-18T09:35:50.879Z,100
2023-01-18T09:50:21.623Z,100
2023-01-18T10:04:54.246Z,100
2023-01-18T10:19:26.858Z,100
2023-01-18T10:33:59.323Z,100
2023-01-18T10:48:30.244Z,100
2023-01-18T11:03:03.560Z,100
2023-01-18T11:17:36.263Z,100
2023-01-18T11:32:09.042Z,100
2023-01-18T11:46:40.823Z,100
2023-01-18T12:01:14.395Z,100
2023-01-18T12:15:46.645Z,100
2023-01-18T12:30:16.431Z,100
2023-01-18T12:44:46.678Z,100
2023-01-18T12:59:14.749Z,100
2023-01-18T13:13:47.676Z,100
2023-01-18T13:28:18.585Z,100
2023-01-18T13:42:51.209Z,100
2023-01-18T13:57:22.720Z,100
2023-01-18T14:11:53.164Z,100
2023-01-18T14:26:24.740Z,100
2023-01-18T14:40:53.895Z,100
2023-01-18T14:55:26.220Z,100
2023-01-18T15:09:58.894Z,100
2023-01-18T15:24:30.115Z,100
2023-01-18T15:39:00.763Z,100
2023-01-18T15:53:33.075Z,100
2023-01-18T16:08:16.406Z,100
2023-01-18T16:22:40.338Z,100
2023-01-18T16:37:11.874Z,100
2023-01-18T16:51:43.002Z,100
2023-01-18T17:06:14.695Z,100
2023-01-18T17:20:46.044Z,100
2023-01-18T17:35:18.376Z,100
2023-01-18T17:49:50.165Z,100
2023-01-18T18:04:21.662Z,99.2
2023-01-18T18:18:53.458Z,98.2
2023-01-18T18:33:24.328Z,95.7
2023-01-18T18:47:54.041Z,94.6
2023-01-18T19:02:26.745Z,93.8
2023-01-18T19:16:58.538Z,94
2023-01-18T19:31:30.303Z,94.9
2023-01-18T19:46:01.598Z,97.2
2023-01-18T20:00:29.302Z,99.7
2023-01-18T20:15:00.672Z,100
2023-01-18T20:29:33.826Z,100
2023-01-18T20:44:05.780Z,100
2023-01-18T20:58:38.373Z,97.6
2023-01-18T21:13:10.943Z,95
2023-01-18T21:27:44.590Z,95.3
2023-01-18T21:42:17.536Z,94.9
2023-01-18T21:56:49.909Z,95
2023-01-18T22:11:22.386Z,95.8
2023-01-18T22:25:54.952Z,96.8
2023-01-18T22:40:27.786Z,97.3
2023-01-18T22:54:59.804Z,97.3
2023-01-18T23:09:33.184Z,97.5
2023-01-18T23:24:05.342Z,98
2023-01-18T23:38:37.295Z,98.1
2023-01-18T23:53:10.181Z,99.4
